createdAt,value
2022-11-19T00:02:00.996Z,7.20
2022-11-19T00:04:28.987Z,7.20
2022-11-19T00:06:56.983Z,7.20
2022-11-19T00:09:26.752Z,7.10
2022-11-19T00:12:11.972Z,7.10
2022-11-19T00:14:40.104Z,7.10
2022-11-19T00:17:08.015Z,7.00
2022-11-19T00:19:35.909Z,7.10
2022-11-19T00:22:03.799Z,7.10
2022-11-19T00:24:33.315Z,7.20
2022-11-19T00:27:01.203Z,7.10
2022-11-19T00:29:29.185Z,7.00
2022-11-19T00:31:57.111Z,6.90
2022-11-19T00:34:25.021Z,7.10
2022-11-19T00:36:52.921Z,6.80
2022-11-19T00:39:21.552Z,6.90
2022-11-19T00:41:51.186Z,6.70
2022-11-19T00:44:19.084Z,6.70
2022-11-19T00:46:47.024Z,6.70
2022-11-19T00:49:14.995Z,6.70
2022-11-19T00:51:42.923Z,6.60
2022-11-19T00:54:10.879Z,6.60
2022-11-19T00:56:38.955Z,6.60
2022-11-19T00:59:08.246Z,6.60
2022-11-19T01:01:36.209Z,6.60
2022-11-19T01:04:04.267Z,6.50
2022-11-19T01:06:32.201Z,6.50
2022-11-19T01:09:00.284Z,7.10
2022-11-19T01:11:30.835Z,6.50
2022-11-19T01:13:59.575Z,6.50
2022-11-19T01:16:30.755Z,6.50
2022-11-19T01:18:59.221Z,6.40
2022-11-19T01:21:30.672Z,6.40
2022-11-19T01:23:59.329Z,6.40
2022-11-19T01:26:27.827Z,6.40
2022-11-19T01:28:56.159Z,6.40
2022-11-19T01:31:26.296Z,6.30
2022-11-19T01:33:56.065Z,6.20
2022-11-19T01:36:25.819Z,6.20
2022-11-19T01:38:54.515Z,6.20
2022-11-19T01:41:24.444Z,6.20
2022-11-19T01:43:54.916Z,6.30
2022-11-19T01:46:24.592Z,6.30
2022-11-19T01:48:58.147Z,6.30
2022-11-19T01:51:28.819Z,6.20
2022-11-19T01:54:00.309Z,6.20
2022-11-19T01:56:30.696Z,6.20
2022-11-19T01:59:03.769Z,6.10
2022-11-19T02:01:33.255Z,6.10
2022-11-19T02:04:04.951Z,6.10
2022-11-19T02:06:35.488Z,6.00
2022-11-19T02:09:03.410Z,6.00
2022-11-19T02:11:55.884Z,6.00
2022-11-19T02:14:36.957Z,5.90
2022-11-19T02:17:17.917Z,6.00
2022-11-19T02:20:18.999Z,5.90
2022-11-19T02:23:14.253Z,5.80
2022-11-19T02:26:00.292Z,5.80
2022-11-19T02:28:35.369Z,5.80
2022-11-19T02:31:09.697Z,5.70
2022-11-19T02:33:45.438Z,5.70
2022-11-19T02:36:20.976Z,7.00
2022-11-19T02:38:54.159Z,5.70
2022-11-19T02:41:37.606Z,5.60
2022-11-19T02:44:33.408Z,5.50
2022-11-19T02:47:05.884Z,5.50
2022-11-19T02:49:34.967Z,5.50
2022-11-19T02:52:04.468Z,5.50
2022-11-19T02:54:32.505Z,5.50
2022-11-19T02:57:00.460Z,5.40
2022-11-19T02:59:49.803Z,5.40
2022-11-19T03:02:46.301Z,5.40
2022-11-19T03:05:18.430Z,5.30
2022-11-19T03:07:46.461Z,5.30
2022-11-19T03:10:16.165Z,5.30
2022-11-19T03:12:50.937Z,5.30
2022-11-19T03:15:48.772Z,5.30
2022-11-19T03:18:22.310Z,5.30
2022-11-19T03:20:56.220Z,5.30
2022-11-19T03:23:29.382Z,5.30
2022-11-19T03:26:01.840Z,5.30
2022-11-19T03:28:31.473Z,5.20
2022-11-19T03:31:01.536Z,5.70
2022-11-19T03:33:34.594Z,5.20
2022-11-19T03:36:08.769Z,5.20
2022-11-19T03:38:40.013Z,5.10
2022-11-19T03:41:09.024Z,5.20
2022-11-19T03:43:39.642Z,5.20
2022-11-19T03:46:14.230Z,5.20
2022-11-19T03:48:47.345Z,5.10
2022-11-19T03:51:21.091Z,5.00
2022-11-19T03:53:49.754Z,5.00
2022-11-19T03:56:22.967Z,5.00
2022-11-19T03:58:50.933Z,4.90
2022-11-19T04:01:18.944Z,4.90
2022-11-19T04:04:02.161Z,5.40
2022-11-19T04:06:30.222Z,4.90
2022-11-19T04:08:58.128Z,4.90
2022-11-19T04:13:52.934Z,4.90
2022-11-19T04:16:20.857Z,4.90
2022-11-19T04:18:50.135Z,4.90
2022-11-19T04:21:18.070Z,4.80
2022-11-19T04:23:45.961Z,4.80
2022-11-19T04:26:13.903Z,4.70
2022-11-19T04:28:41.863Z,4.70
2022-11-19T04:31:12.348Z,4.60
2022-11-19T04:33:44.380Z,4.50
2022-11-19T04:36:13.642Z,4.70
2022-11-19T04:38:41.533Z,4.70
2022-11-19T04:41:09.488Z,4.60
2022-11-19T04:43:37.441Z,4.60
2022-11-19T04:46:05.434Z,4.50
2022-11-19T04:48:33.312Z,4.50
2022-11-19T04:51:01.193Z,4.50
2022-11-19T04:53:30.494Z,4.50
2022-11-19T04:55:58.402Z,4.50
2022-11-19T04:58:26.412Z,4.40
2022-11-19T05:00:54.350Z,4.40
2022-11-19T05:03:22.216Z,4.30
2022-11-19T05:05:50.111Z,4.40
2022-11-19T05:08:18.088Z,4.40
2022-11-19T05:10:47.392Z,4.30
2022-11-19T05:13:15.425Z,4.40
2022-11-19T05:15:43.295Z,5.40
2022-11-19T05:18:11.196Z,4.20
2022-11-19T05:20:39.905Z,4.20
2022-11-19T05:23:08.447Z,4.20
2022-11-19T05:25:36.416Z,4.20
2022-11-19T05:28:06.104Z,4.10
2022-11-19T05:30:34.053Z,4.10
2022-11-19T05:33:02.064Z,4.10
2022-11-19T05:35:29.980Z,4.10
2022-11-19T05:37:57.902Z,4.00
2022-11-19T05:40:25.864Z,4.00
2022-11-19T05:42:53.773Z,4.00
2022-11-19T05:45:23.131Z,4.00
2022-11-19T05:47:55.632Z,4.00
2022-11-19T05:50:23.764Z,4.00
2022-11-19T05:52:51.748Z,3.90
2022-11-19T05:55:20.782Z,3.90
2022-11-19T05:57:48.849Z,3.80
2022-11-19T06:00:17.902Z,3.90
2022-11-19T06:02:47.248Z,3.90
2022-11-19T06:05:15.546Z,3.80
2022-11-19T06:07:43.421Z,3.80
2022-11-19T06:10:11.648Z,3.80
2022-11-19T06:12:45.179Z,3.80
2022-11-19T06:15:14.203Z,3.90
2022-11-19T06:17:42.206Z,3.70
2022-11-19T06:20:12.174Z,3.60
2022-11-19T06:22:40.895Z,3.60
2022-11-19T06:25:09.633Z,3.60
2022-11-19T06:27:37.519Z,3.60
2022-11-19T06:30:06.618Z,3.50
2022-11-19T06:32:34.584Z,3.50
2022-11-19T06:35:02.877Z,3.40
2022-11-19T06:37:32.144Z,3.40
2022-11-19T06:40:00.060Z,3.40
2022-11-19T06:42:39.712Z,3.40
2022-11-19T06:45:10.499Z,3.30
2022-11-19T06:47:39.546Z,3.30
2022-11-19T06:50:08.626Z,3.30
2022-11-19T06:52:38.124Z,3.30
2022-11-19T06:55:06.820Z,3.20
2022-11-19T06:57:34.807Z,3.30
2022-11-19T07:00:02.947Z,3.20
2022-11-19T07:02:30.850Z,3.20
2022-11-19T07:04:58.731Z,4.70
2022-11-19T07:07:27.561Z,3.10
2022-11-19T07:09:57.022Z,3.10
2022-11-19T07:12:24.999Z,3.10
2022-11-19T07:14:52.988Z,3.10
2022-11-19T07:17:20.873Z,3.00
2022-11-19T07:19:48.732Z,3.00
2022-11-19T07:22:16.669Z,3.00
2022-11-19T07:24:44.887Z,3.00
2022-11-19T07:27:14.168Z,2.90
2022-11-19T07:29:42.073Z,2.90
2022-11-19T07:32:10.219Z,3.00
2022-11-19T07:34:38.170Z,2.90
2022-11-19T07:37:06.094Z,2.90
2022-11-19T07:39:34.057Z,2.90
2022-11-19T07:42:19.400Z,3.20
2022-11-19T07:44:52.199Z,2.80
2022-11-19T07:47:23.828Z,2.70
2022-11-19T07:49:51.742Z,2.70
2022-11-19T07:52:19.638Z,2.80
2022-11-19T07:54:47.621Z,2.80
2022-11-19T07:57:15.564Z,2.80
2022-11-19T07:59:43.437Z,2.70
2022-11-19T08:02:14.040Z,2.80
2022-11-19T08:04:41.996Z,2.80
2022-11-19T08:07:10.112Z,2.80
2022-11-19T08:09:38.127Z,2.40
2022-11-19T08:12:06.596Z,2.80
2022-11-19T08:14:34.542Z,2.70
2022-11-19T08:17:20.043Z,2.60
2022-11-19T08:19:49.291Z,2.70
2022-11-19T08:22:17.207Z,2.70
2022-11-19T08:24:45.882Z,2.70
2022-11-19T08:27:13.967Z,2.70
2022-11-19T08:29:41.864Z,2.60
2022-11-19T08:32:09.793Z,2.70
2022-11-19T08:34:37.781Z,2.60
2022-11-19T08:37:07.419Z,2.50
2022-11-19T08:39:35.305Z,2.50
2022-11-19T08:42:20.808Z,2.50
2022-11-19T08:44:48.703Z,2.50
2022-11-19T08:47:16.636Z,2.50
2022-11-19T08:49:44.541Z,2.50
2022-11-19T08:52:14.974Z,2.50
2022-11-19T08:54:42.901Z,2.60
2022-11-19T08:57:10.826Z,2.60
2022-11-19T08:59:38.709Z,2.60
2022-11-19T09:02:06.918Z,2.60
2022-11-19T09:04:34.997Z,2.60
2022-11-19T09:07:03.001Z,2.60
2022-11-19T09:09:32.306Z,2.60
2022-11-19T09:12:00.237Z,2.60
2022-11-19T09:14:28.349Z,2.60
2022-11-19T09:16:56.269Z,2.60
2022-11-19T09:19:24.241Z,2.70
2022-11-19T09:21:52.222Z,2.70
2022-11-19T09:24:20.250Z,3.10
2022-11-19T09:26:52.809Z,2.80
2022-11-19T09:29:21.262Z,2.80
2022-11-19T09:31:49.243Z,2.80
2022-11-19T09:34:17.508Z,2.80
2022-11-19T09:36:45.606Z,2.80
2022-11-19T09:39:13.770Z,2.80
2022-11-19T09:41:51.084Z,2.80
2022-11-19T09:44:35.540Z,2.70
2022-11-19T09:47:17.138Z,2.80
2022-11-19T09:49:50.867Z,2.80
2022-11-19T09:52:23.536Z,2.90
2022-11-19T09:54:55.200Z,3.00
2022-11-19T09:57:31.793Z,3.00
2022-11-19T10:00:05.268Z,3.00
2022-11-19T10:02:33.231Z,3.00
2022-11-19T10:05:01.461Z,2.90
2022-11-19T10:07:48.896Z,3.00
2022-11-19T10:10:34.002Z,2.90
2022-11-19T10:13:19.896Z,3.00
2022-11-19T10:16:00.849Z,2.80
2022-11-19T10:18:38.989Z,2.80
2022-11-19T10:21:12.369Z,2.90
2022-11-19T10:23:49.270Z,2.90
2022-11-19T10:26:19.393Z,3.00
2022-11-19T10:28:55.747Z,2.80
2022-11-19T10:31:33.838Z,2.80
2022-11-19T10:34:07.716Z,2.90
2022-11-19T10:36:42.504Z,2.90
2022-11-19T10:39:18.023Z,2.90
2022-11-19T10:41:51.783Z,2.90
2022-11-19T10:44:41.247Z,2.90
2022-11-19T10:47:15.070Z,2.90
2022-11-19T10:49:45.246Z,2.90
2022-11-19T10:52:35.987Z,3.00
2022-11-19T10:55:15.953Z,3.00
2022-11-19T10:57:44.994Z,2.90
2022-11-19T11:00:16.001Z,3.00
2022-11-19T11:02:47.172Z,3.00
2022-11-19T11:05:18.198Z,3.00
2022-11-19T11:07:50.639Z,2.90
2022-11-19T11:10:31.011Z,3.00
2022-11-19T11:13:24.805Z,2.90
2022-11-19T11:15:55.157Z,2.90
2022-11-19T11:18:27.715Z,3.00
2022-11-19T11:20:57.149Z,3.00
2022-11-19T11:23:27.031Z,3.10
2022-11-19T11:26:01.706Z,3.00
2022-11-19T11:28:29.773Z,2.90
2022-11-19T11:31:00.643Z,2.90
2022-11-19T11:33:38.601Z,3.00
2022-11-19T11:36:09.170Z,3.00
2022-11-19T11:38:43.658Z,3.10
2022-11-19T11:42:03.790Z,3.00
2022-11-19T11:44:04.644Z,3.00
2022-11-19T11:46:42.964Z,3.00
2022-11-19T11:49:26.395Z,2.90
2022-11-19T11:52:19.141Z,3.00
2022-11-19T11:54:58.509Z,2.90
2022-11-19T11:57:28.246Z,3.00
2022-11-19T11:59:56.502Z,3.10
2022-11-19T12:02:30.363Z,3.00
2022-11-19T12:05:02.146Z,3.00
2022-11-19T12:07:52.228Z,3.10
2022-11-19T12:10:30.867Z,3.00
2022-11-19T12:13:15.209Z,3.40
2022-11-19T12:15:55.360Z,3.00
2022-11-19T12:18:33.305Z,3.10
2022-11-19T12:21:11.705Z,3.00
2022-11-19T12:24:09.585Z,3.00
2022-11-19T12:26:45.639Z,3.00
2022-11-19T12:29:22.153Z,3.00
2022-11-19T12:32:08.185Z,3.00
2022-11-19T12:35:05.169Z,3.20
2022-11-19T12:38:03.176Z,3.30
2022-11-19T12:40:41.725Z,3.30
2022-11-19T12:43:21.346Z,3.40
2022-11-19T12:45:58.653Z,3.30
2022-11-19T12:48:43.922Z,4.00
2022-11-19T12:51:23.402Z,3.40
2022-11-19T12:54:16.382Z,3.40
2022-11-19T12:56:54.342Z,3.30
2022-11-19T12:59:36.322Z,3.40
2022-11-19T13:02:13.813Z,3.40
2022-11-19T13:04:48.845Z,3.30
2022-11-19T13:07:23.960Z,3.30
2022-11-19T13:09:55.363Z,3.30
2022-11-19T13:12:29.053Z,3.30
2022-11-19T13:15:00.632Z,3.30
2022-11-19T13:17:32.133Z,3.40
2022-11-19T13:20:04.745Z,3.40
2022-11-19T13:22:38.252Z,3.50
2022-11-19T13:25:16.845Z,3.40
2022-11-19T13:27:47.589Z,3.50
2022-11-19T13:30:19.323Z,3.50
2022-11-19T13:32:55.049Z,3.60
2022-11-19T13:35:25.871Z,3.60
2022-11-19T13:38:02.053Z,3.60
2022-11-19T13:40:35.504Z,3.50
2022-11-19T13:43:37.230Z,4.40
2022-11-19T13:46:23.384Z,3.60
2022-11-19T13:48:57.395Z,3.70
2022-11-19T13:51:31.977Z,3.60
2022-11-19T13:54:03.919Z,3.70
2022-11-19T13:56:46.889Z,4.00
2022-11-19T13:59:32.701Z,3.70
2022-11-19T14:02:13.677Z,3.70
2022-11-19T14:05:03.030Z,3.60
2022-11-19T14:07:54.027Z,3.70
2022-11-19T14:10:30.582Z,3.60
2022-11-19T14:13:29.266Z,3.60
2022-11-19T14:16:26.252Z,3.60
2022-11-19T14:19:25.124Z,3.70
2022-11-19T14:22:12.473Z,3.70
2022-11-19T14:25:16.827Z,3.80
2022-11-19T14:27:46.459Z,3.70
2022-11-19T14:30:17.273Z,3.80
2022-11-19T14:32:53.195Z,3.70
2022-11-19T14:35:39.961Z,3.70
2022-11-19T14:38:39.453Z,3.60
2022-11-19T14:41:27.420Z,3.60
2022-11-19T14:44:12.906Z,3.70
2022-11-19T14:46:43.609Z,3.70
2022-11-19T14:49:33.649Z,3.80
2022-11-19T14:52:02.753Z,3.70
2022-11-19T14:54:39.322Z,3.70
2022-11-19T14:57:25.667Z,3.70
2022-11-19T14:59:59.094Z,3.60
2022-11-19T15:02:34.249Z,3.60
2022-11-19T15:05:07.609Z,3.60
2022-11-19T15:07:39.899Z,3.70
2022-11-19T15:10:34.597Z,3.70
2022-11-19T15:13:24.206Z,3.70
2022-11-19T15:16:09.242Z,3.60
2022-11-19T15:19:14.548Z,3.60
2022-11-19T15:22:18.342Z,3.60
2022-11-19T15:24:57.846Z,3.60
2022-11-19T15:27:40.120Z,3.60
2022-11-19T15:30:15.715Z,3.60
2022-11-19T15:33:13.683Z,3.50
2022-11-19T15:36:17.109Z,3.40
2022-11-19T15:38:53.573Z,3.50
2022-11-19T15:41:25.232Z,3.50
2022-11-19T15:43:57.285Z,3.50
2022-11-19T15:46:35.700Z,3.50
2022-11-19T15:49:11.791Z,3.50
2022-11-19T15:51:56.505Z,3.40
2022-11-19T15:54:30.579Z,3.40
2022-11-19T15:57:00.473Z,3.40
2022-11-19T15:59:30.326Z,3.40
2022-11-19T16:02:01.500Z,3.40
2022-11-19T16:04:35.601Z,3.40
2022-11-19T16:07:05.187Z,3.40
2022-11-19T16:09:37.903Z,3.40
2022-11-19T16:12:25.236Z,4.40
2022-11-19T16:15:11.949Z,3.40
2022-11-19T16:17:47.136Z,3.40
2022-11-19T16:20:21.502Z,3.40
2022-11-19T16:22:55.198Z,3.40
2022-11-19T16:25:31.650Z,3.40
2022-11-19T16:28:03.529Z,3.40
2022-11-19T16:30:43.153Z,3.30
2022-11-19T16:33:18.099Z,3.30
2022-11-19T16:35:51.294Z,3.30
2022-11-19T16:38:52.040Z,3.30
2022-11-19T16:41:40.905Z,3.40
2022-11-19T16:44:13.094Z,3.30
2022-11-19T16:46:41.555Z,3.40
2022-11-19T16:49:29.805Z,3.30
2022-11-19T16:51:58.647Z,3.50
2022-11-19T16:54:48.492Z,3.80
2022-11-19T16:57:20.960Z,3.40
2022-11-19T16:59:50.872Z,3.30
2022-11-19T17:02:22.101Z,3.40
2022-11-19T17:04:53.617Z,3.30
2022-11-19T17:07:24.813Z,3.30
2022-11-19T17:10:10.465Z,3.30
2022-11-19T17:12:51.262Z,3.40
2022-11-19T17:15:38.595Z,3.30
2022-11-19T17:18:16.366Z,3.30
2022-11-19T17:21:03.081Z,4.00
2022-11-19T17:23:32.890Z,3.30
2022-11-19T17:26:03.182Z,3.30
2022-11-19T17:28:38.076Z,3.30
2022-11-19T17:31:15.222Z,3.30
2022-11-19T17:33:53.822Z,3.30
2022-11-19T17:36:22.485Z,3.20
2022-11-19T17:38:51.041Z,3.30
2022-11-19T17:41:42.931Z,3.20
2022-11-19T17:44:34.852Z,3.30
2022-11-19T17:47:03.265Z,3.20
2022-11-19T17:49:32.149Z,3.10
2022-11-19T17:52:00.109Z,3.10
2022-11-19T17:54:30.695Z,3.10
2022-11-19T17:56:59.023Z,3.10
2022-11-19T17:59:28.499Z,3.10
2022-11-19T18:01:56.877Z,3.00
2022-11-19T18:04:26.783Z,3.00
2022-11-19T18:06:54.923Z,3.00
2022-11-19T18:09:23.514Z,3.00
2022-11-19T18:11:51.754Z,2.90
2022-11-19T18:14:19.741Z,3.40
2022-11-19T18:16:50.122Z,2.80
2022-11-19T18:19:26.317Z,2.80
2022-11-19T18:21:54.564Z,2.70
2022-11-19T18:24:23.043Z,2.70
2022-11-19T18:26:53.438Z,2.70
2022-11-19T18:29:21.571Z,2.60
2022-11-19T18:31:53.316Z,2.50
2022-11-19T18:34:23.860Z,2.50
2022-11-19T18:36:52.045Z,2.40
2022-11-19T18:39:20.304Z,2.30
2022-11-19T18:41:48.532Z,2.30
2022-11-19T18:44:35.364Z,2.30
2022-11-19T18:47:07.801Z,2.20
2022-11-19T18:49:35.811Z,2.10
2022-11-19T18:52:04.412Z,2.10
2022-11-19T18:54:32.659Z,2.00
2022-11-19T18:57:00.601Z,2.00
2022-11-19T18:59:29.849Z,1.90
2022-11-19T19:01:57.881Z,1.80
2022-11-19T19:04:27.397Z,1.80
2022-11-19T19:06:55.349Z,1.80
2022-11-19T19:09:23.485Z,1.80
2022-11-19T19:12:13.345Z,1.70
2022-11-19T19:14:42.041Z,1.60
2022-11-19T19:17:10.024Z,1.60
2022-11-19T19:19:39.524Z,1.60
2022-11-19T19:22:08.339Z,1.50
2022-11-19T19:24:36.583Z,1.50
2022-11-19T19:27:05.416Z,1.40
2022-11-19T19:29:33.594Z,1.30
2022-11-19T19:32:02.064Z,1.30
2022-11-19T19:34:30.854Z,1.30
2022-11-19T19:37:00.249Z,1.20
2022-11-19T19:39:28.181Z,1.20
2022-11-19T19:41:56.076Z,1.10
2022-11-19T19:44:24.045Z,1.10
2022-11-19T19:46:52.026Z,1.10
2022-11-19T19:49:20.587Z,1.10
2022-11-19T19:51:49.160Z,1.00
2022-11-19T19:54:18.806Z,1.00
2022-11-19T19:58:07.486Z,1.00
2022-11-19T20:00:35.481Z,0.90
2022-11-19T20:03:03.489Z,0.80
2022-11-19T20:05:31.743Z,0.70
2022-11-19T20:08:01.876Z,0.70
2022-11-19T20:10:29.830Z,0.60
2022-11-19T20:13:23.750Z,0.60
2022-11-19T20:15:53.168Z,0.60
2022-11-19T20:18:21.129Z,0.60
2022-11-19T20:20:49.374Z,1.20
2022-11-19T20:23:17.333Z,0.50
2022-11-19T20:25:45.542Z,0.50
2022-11-19T20:28:14.776Z,0.50
2022-11-19T20:30:42.722Z,0.40
2022-11-19T20:33:12.121Z,0.40
2022-11-19T20:35:40.658Z,0.40
2022-11-19T20:38:08.699Z,0.30
2022-11-19T20:40:36.983Z,0.30
2022-11-19T20:43:22.878Z,0.30
2022-11-19T20:45:50.918Z,0.30
2022-11-19T20:48:20.343Z,0.40
2022-11-19T20:50:48.258Z,0.20
2022-11-19T20:53:16.167Z,0.10
2022-11-19T20:56:03.926Z,0.10
2022-11-19T20:58:33.150Z,0.10
2022-11-19T21:01:02.735Z,0.10
2022-11-19T21:03:33.882Z,0.10
2022-11-19T21:06:06.635Z,0.00
2022-11-19T21:08:36.372Z,0.00
2022-11-19T21:11:07.430Z,-0.10
2022-11-19T21:13:35.578Z,-0.10
2022-11-19T21:16:07.221Z,0.00
2022-11-19T21:18:38.075Z,-0.10
2022-11-19T21:21:07.761Z,-0.10
2022-11-19T21:23:36.967Z,-0.10
2022-11-19T21:26:06.683Z,-0.20
2022-11-19T21:28:35.622Z,-0.20
2022-11-19T21:31:04.104Z,-0.20
2022-11-19T21:33:32.071Z,-0.20
2022-11-19T21:36:04.511Z,-0.20
2022-11-19T21:38:32.676Z,-0.20
2022-11-19T21:41:00.889Z,-0.30
2022-11-19T21:43:30.054Z,-0.30
2022-11-19T21:45:58.700Z,-0.30
2022-11-19T21:48:27.149Z,-0.30
2022-11-19T21:50:55.308Z,-0.10
2022-11-19T21:53:24.779Z,-0.40
2022-11-19T21:55:53.101Z,-0.40
2022-11-19T21:58:21.321Z,-0.40
2022-11-19T22:00:49.303Z,-0.50
2022-11-19T22:03:17.281Z,-0.50
2022-11-19T22:05:45.661Z,-0.50
2022-11-19T22:08:14.039Z,-0.50
2022-11-19T22:10:45.676Z,-0.50
2022-11-19T22:13:13.989Z,-0.60
2022-11-19T22:15:42.129Z,-0.60
2022-11-19T22:18:10.028Z,-0.60
2022-11-19T22:20:37.979Z,-0.60
2022-11-19T22:23:06.150Z,-0.70
2022-11-19T22:25:35.356Z,-0.40
2022-11-19T22:28:04.937Z,-0.70
2022-11-19T22:30:32.939Z,-0.70
2022-11-19T22:33:01.199Z,-0.70
2022-11-19T22:35:29.273Z,-0.80
2022-11-19T22:37:57.258Z,-0.70
2022-11-19T22:40:25.246Z,-0.80
2022-11-19T22:42:53.242Z,-0.80
2022-11-19T22:45:22.629Z,-0.80
2022-11-19T22:47:50.786Z,-0.80
2022-11-19T22:50:19.927Z,-0.80
2022-11-19T22:52:47.973Z,-0.90
2022-11-19T22:55:18.234Z,-0.90
2022-11-19T22:57:46.208Z,-0.90
2022-11-19T23:00:35.279Z,-0.90
2022-11-19T23:03:04.960Z,-0.90
2022-11-19T23:05:37.018Z,-0.70
2022-11-19T23:08:07.043Z,-0.90
2022-11-19T23:10:35.492Z,-0.90
2022-11-19T23:13:30.825Z,-1.00
2022-11-19T23:16:05.537Z,-1.00
2022-11-19T23:18:37.998Z,-1.00
2022-11-19T23:21:09.160Z,-1.00
2022-11-19T23:23:37.245Z,-1.00
2022-11-19T23:26:07.509Z,-1.00
2022-11-19T23:28:37.210Z,-1.00
2022-11-19T23:31:06.485Z,-1.00
2022-11-19T23:33:36.487Z,-1.00
2022-11-19T23:36:05.801Z,-1.00
2022-11-19T23:38:35.296Z,-1.10
2022-11-19T23:41:04.743Z,-1.10
2022-11-19T23:43:33.110Z,-1.10
2022-11-19T23:46:05.176Z,-1.10
2022-11-19T23:48:34.969Z,-1.20
2022-11-19T23:51:03.985Z,-1.20
2022-11-19T23:53:32.144Z,-1.20
2022-11-19T23:56:00.659Z,-1.20
2022-11-19T23:58:29.136Z,-1.20
